Time;durP1;ratioP1;P1;durP2;ratioP2;P2;SDS_P1;SDS_P2;PMS_P1;PMS_P2;Temp;Humidity;BMP_temperature;BMP_pressure;BME280_temperature;BME280_humidity;BME280_pressure;Samples;Min_cycle;Max_cycle;Signal;HPM_P1;HPM_P2
2021/09/15 00:01:16;;;;;;;;;;;20.90;71.50;;;;;;5032965;28;1283;-67
2021/09/15 00:03:42;;;;;;;;;;;20.90;71.60;;;;;;5033164;28;1954;-67
2021/09/15 00:06:07;;;;;;;;;;;20.80;71.50;;;;;;5032468;28;1265;-67
2021/09/15 00:08:33;;;;;;;;;;;20.80;71.50;;;;;;5028032;28;1280;-66
2021/09/15 00:10:58;;;;;;;;;;;20.90;71.60;;;;;;5031896;28;1312;-67
2021/09/15 00:13:24;;;;;;;;;;;20.80;71.50;;;;;;5033003;28;1277;-67
2021/09/15 00:15:49;;;;;;;;;;;20.90;71.60;;;;;;5032515;28;1308;-67
2021/09/15 00:18:15;;;;;;;;;;;20.80;71.60;;;;;;5032845;28;1676;-67
2021/09/15 00:20:40;;;;;;;;;;;20.80;71.60;;;;;;5031928;28;1393;-67
2021/09/15 00:23:06;;;;;;;;;;;20.90;71.60;;;;;;5031990;28;1891;-66
2021/09/15 00:25:32;;;;;;;;;;;20.80;71.60;;;;;;5030982;28;1306;-67
2021/09/15 00:27:57;;;;;;;;;;;20.90;71.70;;;;;;5031703;28;1295;-67
2021/09/15 00:30:23;;;;;;;;;;;20.90;71.70;;;;;;5032095;28;1290;-67
2021/09/15 00:32:48;;;;;;;;;;;20.90;71.70;;;;;;5032084;28;1251;-67
2021/09/15 00:35:14;;;;;;;;;;;20.90;71.70;;;;;;5032517;28;1258;-67
2021/09/15 00:37:39;;;;;;;;;;;20.80;71.70;;;;;;5032246;28;1307;-67
2021/09/15 00:40:05;;;;;;;;;;;20.80;71.70;;;;;;5033145;28;1314;-67
2021/09/15 00:42:31;;;;;;;;;;;20.90;71.70;;;;;;5036640;28;1902;-67
2021/09/15 00:44:56;;;;;;;;;;;20.80;71.70;;;;;;5036558;28;1322;-67
2021/09/15 00:47:22;;;;;;;;;;;20.90;71.80;;;;;;5036396;28;1249;-67
2021/09/15 00:49:47;;;;;;;;;;;20.90;71.80;;;;;;5036575;28;1306;-67
2021/09/15 00:52:13;;;;;;;;;;;20.90;71.80;;;;;;5036353;28;1248;-67
2021/09/15 00:54:38;;;;;;;;;;;20.90;72.00;;;;;;5036496;28;1328;-67
2021/09/15 00:57:03;;;;;;;;;;;20.80;71.80;;;;;;5036005;28;1224;-67
2021/09/15 00:59:29;;;;;;;;;;;20.90;71.80;;;;;;5036263;28;1324;-67
2021/09/15 01:01:54;;;;;;;;;;;20.80;71.80;;;;;;5036194;28;1190;-67
2021/09/15 01:04:20;;;;;;;;;;;20.80;71.80;;;;;;5036257;28;1961;-67
2021/09/15 01:06:45;;;;;;;;;;;20.80;71.80;;;;;;5035748;28;1230;-67
2021/09/15 01:09:10;;;;;;;;;;;20.80;71.80;;;;;;5036086;28;1363;-67
2021/09/15 01:11:37;;;;;;;;;;;20.90;71.80;;;;;;5036382;28;1145;-67
2021/09/15 01:14:03;;;;;;;;;;;20.80;71.80;;;;;;5036164;28;1278;-67
2021/09/15 01:16:45;;;;;;;;;;;20.90;71.90;;;;;;5035821;28;1288;-67
2021/09/15 01:19:11;;;;;;;;;;;20.90;71.90;;;;;;5018310;28;1378;-67
2021/09/15 01:21:36;;;;;;;;;;;20.80;71.90;;;;;;5036244;28;1281;-67
2021/09/15 01:24:02;;;;;;;;;;;20.80;71.80;;;;;;5036038;28;1898;-67
2021/09/15 01:26:32;;;;;;;;;;;20.90;71.90;;;;;;5035828;28;1179;-67
2021/09/15 01:28:57;;;;;;;;;;;20.80;71.90;;;;;;5035880;28;1306;-67
2021/09/15 01:31:22;;;;;;;;;;;20.80;71.90;;;;;;5018177;28;1301;-67
2021/09/15 01:33:48;;;;;;;;;;;20.90;71.90;;;;;;5035690;28;1262;-67
2021/09/15 01:36:13;;;;;;;;;;;20.80;71.90;;;;;;5035365;28;1261;-67
2021/09/15 01:38:39;;;;;;;;;;;20.80;71.90;;;;;;5035657;28;1268;-67
2021/09/15 01:41:04;;;;;;;;;;;20.80;71.90;;;;;;5035815;28;1308;-67
2021/09/15 01:43:30;;;;;;;;;;;20.80;72.00;;;;;;5035698;28;1923;-67
2021/09/15 01:45:55;;;;;;;;;;;20.80;72.00;;;;;;5035367;28;1324;-67
2021/09/15 01:48:20;;;;;;;;;;;20.80;72.10;;;;;;5035210;28;1333;-67
2021/09/15 01:50:46;;;;;;;;;;;20.80;72.00;;;;;;5035165;28;1253;-67
2021/09/15 01:53:11;;;;;;;;;;;20.80;72.00;;;;;;5035274;28;1386;-67
2021/09/15 01:55:37;;;;;;;;;;;20.80;72.00;;;;;;5035588;28;1332;-67
2021/09/15 01:58:07;;;;;;;;;;;20.80;72.00;;;;;;5035203;28;1358;-66
2021/09/15 02:00:33;;;;;;;;;;;20.80;72.00;;;;;;5035377;28;1316;-66
2021/09/15 02:02:58;;;;;;;;;;;20.80;72.00;;;;;;5017195;28;1907;-66
2021/09/15 02:05:24;;;;;;;;;;;20.80;72.00;;;;;;5035252;28;1352;-67
2021/09/15 02:07:49;;;;;;;;;;;20.80;72.00;;;;;;5034779;28;1274;-67
2021/09/15 02:10:15;;;;;;;;;;;20.80;72.10;;;;;;5029089;28;1228;-67
2021/09/15 02:12:40;;;;;;;;;;;20.90;72.10;;;;;;5035294;28;1359;-67
2021/09/15 02:15:07;;;;;;;;;;;20.80;72.10;;;;;;5035050;28;1323;-67
2021/09/15 02:17:32;;;;;;;;;;;20.80;72.10;;;;;;5034604;28;1325;-67
2021/09/15 02:19:57;;;;;;;;;;;20.80;72.10;;;;;;5035091;28;1324;-67
2021/09/15 02:22:23;;;;;;;;;;;20.80;72.10;;;;;;5034705;28;2412;-67
2021/09/15 02:24:48;;;;;;;;;;;20.80;72.10;;;;;;5034877;28;1277;-67
2021/09/15 02:27:15;;;;;;;;;;;20.80;72.10;;;;;;5034401;28;1352;-67
2021/09/15 02:29:40;;;;;;;;;;;20.80;72.10;;;;;;5034696;28;1309;-67
2021/09/15 02:32:06;;;;;;;;;;;20.80;72.20;;;;;;5017132;28;1302;-67
2021/09/15 02:34:31;;;;;;;;;;;20.80;72.10;;;;;;5035047;28;1281;-67
2021/09/15 02:36:56;;;;;;;;;;;20.80;72.20;;;;;;5034285;28;1330;-67
2021/09/15 02:39:22;;;;;;;;;;;20.80;72.20;;;;;;5034551;28;1317;-67
2021/09/15 02:41:47;;;;;;;;;;;20.80;72.20;;;;;;5034402;28;1312;-67
2021/09/15 02:44:13;;;;;;;;;;;20.80;72.20;;;;;;5034474;28;1956;-67
2021/09/15 02:46:38;;;;;;;;;;;20.80;72.20;;;;;;5033916;28;1268;-67
2021/09/15 02:49:03;;;;;;;;;;;20.80;72.20;;;;;;5034595;28;1475;-67
2021/09/15 02:51:29;;;;;;;;;;;20.80;72.20;;;;;;5034270;28;1297;-67
2021/09/15 02:53:54;;;;;;;;;;;20.80;72.20;;;;;;5034436;28;1464;-67
2021/09/15 02:56:20;;;;;;;;;;;20.80;72.20;;;;;;5033892;28;1261;-67
2021/09/15 02:58:45;;;;;;;;;;;20.80;72.20;;;;;;5034230;28;1351;-67
2021/09/15 03:01:11;;;;;;;;;;;20.80;72.30;;;;;;5033881;28;1329;-67
2021/09/15 03:03:36;;;;;;;;;;;20.80;72.30;;;;;;5033604;28;1910;-67
2021/09/15 03:06:02;;;;;;;;;;;20.80;72.30;;;;;;5016214;28;1556;-67
2021/09/15 03:08:27;;;;;;;;;;;20.80;72.30;;;;;;5029842;28;1338;-66
2021/09/15 03:10:52;;;;;;;;;;;20.80;72.30;;;;;;5031505;28;1311;-67
2021/09/15 03:13:18;;;;;;;;;;;20.80;72.30;;;;;;5025570;28;1283;-67
2021/09/15 03:15:44;;;;;;;;;;;20.80;72.30;;;;;;5033649;28;1374;-67
2021/09/15 03:18:09;;;;;;;;;;;20.80;73.10;;;;;;5033739;28;1270;-67
2021/09/15 03:20:34;;;;;;;;;;;20.80;72.30;;;;;;5033755;28;1357;-67
2021/09/15 03:23:00;;;;;;;;;;;20.80;72.30;;;;;;5033693;28;1957;-67
2021/09/15 03:25:25;;;;;;;;;;;20.80;72.30;;;;;;5033622;28;1139;-67
2021/09/15 03:30:19;;;;;;;;;;;20.80;72.30;;;;;;5045825;28;2000;-75
2021/09/15 03:32:44;;;;;;;;;;;20.80;72.40;;;;;;5044988;28;1030;-75
2021/09/15 03:35:09;;;;;;;;;;;20.80;72.40;;;;;;5053993;28;1505;-75
2021/09/15 03:37:35;;;;;;;;;;;20.80;72.40;;;;;;5035811;28;1381;-75
2021/09/15 03:40:00;;;;;;;;;;;20.80;72.40;;;;;;5035849;28;1823;-75
2021/09/15 03:42:26;;;;;;;;;;;20.80;72.40;;;;;;5053887;28;1905;-75
2021/09/15 03:44:51;;;;;;;;;;;20.80;72.40;;;;;;5053900;28;1699;-75
2021/09/15 03:47:17;;;;;;;;;;;20.80;72.40;;;;;;5035580;28;1334;-75
2021/09/15 03:49:42;;;;;;;;;;;20.80;72.40;;;;;;5035904;28;1413;-75
2021/09/15 03:52:07;;;;;;;;;;;20.80;72.40;;;;;;5053737;28;1602;-75
2021/09/15 03:54:35;;;;;;;;;;;20.80;72.40;;;;;;5053576;28;1538;-75
2021/09/15 03:57:00;;;;;;;;;;;20.80;72.40;;;;;;5053314;28;1174;-75
2021/09/15 03:59:25;;;;;;;;;;;20.80;72.40;;;;;;5015630;28;1329;-76
2021/09/15 04:01:51;;;;;;;;;;;20.80;72.50;;;;;;5026692;28;1333;-76
2021/09/15 04:04:16;;;;;;;;;;;20.80;72.50;;;;;;5035664;28;1919;-76
2021/09/15 04:06:42;;;;;;;;;;;20.80;72.40;;;;;;5035672;28;1385;-76
2021/09/15 04:09:07;;;;;;;;;;;20.80;72.40;;;;;;5035605;28;1440;-75
2021/09/15 04:11:33;;;;;;;;;;;20.80;72.50;;;;;;5053529;28;1280;-76
2021/09/15 04:13:58;;;;;;;;;;;20.80;72.50;;;;;;5037656;28;1656;-75
2021/09/15 04:16:24;;;;;;;;;;;20.80;72.50;;;;;;5038993;28;1368;-77
2021/09/15 04:18:49;;;;;;;;;;;20.80;72.50;;;;;;5038685;28;1711;-77
2021/09/15 04:21:14;;;;;;;;;;;20.80;72.50;;;;;;5038891;28;1349;-76
2021/09/15 04:31:36;;;;;;;;;;;20.80;72.50;;;;;;5040638;28;1698;-77
2021/09/15 04:34:02;;;;;;;;;;;20.80;72.50;;;;;;5055470;28;1370;-77
2021/09/15 04:36:27;;;;;;;;;;;20.80;72.50;;;;;;5055306;28;1344;-77
2021/09/15 04:38:52;;;;;;;;;;;20.80;72.50;;;;;;5038395;28;1407;-77
2021/09/15 04:41:18;;;;;;;;;;;20.80;72.60;;;;;;5037804;28;1703;-77
2021/09/15 04:43:43;;;;;;;;;;;20.80;72.60;;;;;;5038217;28;1906;-76
2021/09/15 04:46:09;;;;;;;;;;;20.80;72.60;;;;;;5038292;28;1400;-78
2021/09/15 04:48:34;;;;;;;;;;;20.80;72.60;;;;;;5038385;28;1663;-77
2021/09/15 04:51:00;;;;;;;;;;;20.80;72.60;;;;;;5022352;28;1408;-76
2021/09/15 04:53:25;;;;;;;;;;;20.80;72.60;;;;;;5037033;28;1476;-76
2021/09/15 04:55:51;;;;;;;;;;;20.80;72.60;;;;;;5034320;28;1755;-76
2021/09/15 04:58:16;;;;;;;;;;;20.80;72.60;;;;;;5034680;28;1378;-75
2021/09/15 05:00:41;;;;;;;;;;;20.80;72.60;;;;;;5034655;28;1662;-76
2021/09/15 05:03:07;;;;;;;;;;;20.80;72.60;;;;;;5052433;28;1950;-76
2021/09/15 05:05:32;;;;;;;;;;;20.80;72.60;;;;;;5034629;28;1267;-74
2021/09/15 05:07:58;;;;;;;;;;;20.80;73.40;;;;;;5052238;28;1684;-75
2021/09/15 05:10:26;;;;;;;;;;;20.80;72.60;;;;;;5034541;28;1767;-76
2021/09/15 05:12:52;;;;;;;;;;;20.80;72.60;;;;;;5052409;28;1449;-76
2021/09/15 05:15:18;;;;;;;;;;;20.80;72.60;;;;;;5034694;28;1613;-76
2021/09/15 05:17:43;;;;;;;;;;;20.80;72.60;;;;;;5052094;28;1391;-74
2021/09/15 05:20:09;;;;;;;;;;;20.90;72.70;;;;;;5052521;28;1828;-75
2021/09/15 05:22:34;;;;;;;;;;;20.90;72.70;;;;;;5034409;28;1898;-75
2021/09/15 05:24:59;;;;;;;;;;;20.90;72.70;;;;;;5034255;28;1454;-74
2021/09/15 05:27:25;;;;;;;;;;;20.90;72.70;;;;;;5054598;28;943;-74
2021/09/15 05:29:50;;;;;;;;;;;20.90;72.70;;;;;;5057177;28;1416;-74
2021/09/15 05:32:16;;;;;;;;;;;20.90;72.70;;;;;;5038735;28;1664;-76
2021/09/15 05:34:41;;;;;;;;;;;20.90;72.70;;;;;;5038219;28;1376;-76
2021/09/15 05:37:06;;;;;;;;;;;20.90;72.70;;;;;;5038482;28;1646;-77
2021/09/15 05:39:32;;;;;;;;;;;20.90;73.40;;;;;;5018519;28;1491;-76
2021/09/15 05:41:57;;;;;;;;;;;21.00;74.50;;;;;;5056156;28;1332;-77
2021/09/15 05:44:23;;;;;;;;;;;21.00;73.30;;;;;;5055908;28;1959;-75
2021/09/15 05:46:48;;;;;;;;;;;21.10;73.30;;;;;;5055407;28;1656;-75
2021/09/15 05:49:14;;;;;;;;;;;21.10;72.70;;;;;;5038097;28;1395;-75
2021/09/15 05:51:39;;;;;;;;;;;21.10;72.50;;;;;;5055585;28;1255;-74
2021/09/15 05:54:05;;;;;;;;;;;21.10;72.60;;;;;;5055474;28;1677;-74
2021/09/15 05:56:30;;;;;;;;;;;21.10;72.50;;;;;;5055292;28;1688;-75
2021/09/15 05:58:56;;;;;;;;;;;21.10;72.60;;;;;;5037719;28;1631;-74
2021/09/15 06:01:21;;;;;;;;;;;21.10;72.70;;;;;;5055464;28;1730;-75
2021/09/15 06:03:46;;;;;;;;;;;21.00;72.80;;;;;;5055500;28;1969;-75
2021/09/15 06:06:12;;;;;;;;;;;21.00;72.80;;;;;;5037237;28;849;-76
2021/09/15 06:08:37;;;;;;;;;;;21.00;72.90;;;;;;5017630;28;1291;-76
2021/09/15 06:11:03;;;;;;;;;;;21.00;73.00;;;;;;5054996;28;1484;-74
2021/09/15 06:13:28;;;;;;;;;;;21.00;73.00;;;;;;5037616;28;1389;-75
2021/09/15 06:15:54;;;;;;;;;;;21.00;73.00;;;;;;5037469;28;1488;-75
2021/09/15 06:18:19;;;;;;;;;;;21.00;73.00;;;;;;5017920;28;1356;-74
2021/09/15 06:20:44;;;;;;;;;;;21.00;73.10;;;;;;5037180;28;2136;-75
2021/09/15 06:23:11;;;;;;;;;;;21.00;73.10;;;;;;5037531;28;1890;-75
2021/09/15 06:25:37;;;;;;;;;;;21.00;73.10;;;;;;5023612;28;1504;-73
2021/09/15 06:28:02;;;;;;;;;;;21.00;73.10;;;;;;5034806;28;2363;-74
2021/09/15 06:30:29;;;;;;;;;;;21.00;73.10;;;;;;5031603;28;1321;-75
2021/09/15 06:32:54;;;;;;;;;;;21.00;73.10;;;;;;5039854;28;1989;-74
2021/09/15 06:35:20;;;;;;;;;;;21.00;73.10;;;;;;5023017;28;2304;-75
2021/09/15 06:37:45;;;;;;;;;;;21.00;73.00;;;;;;5016422;28;2157;-75
2021/09/15 06:40:11;;;;;;;;;;;21.00;73.00;;;;;;5032747;28;1423;-75
2021/09/15 06:42:36;;;;;;;;;;;21.00;73.00;;;;;;5053725;28;1985;-74
2021/09/15 06:45:03;;;;;;;;;;;21.00;73.00;;;;;;5016123;28;1618;-75
2021/09/15 06:47:28;;;;;;;;;;;21.00;73.00;;;;;;5045288;28;1641;-75
2021/09/15 06:49:54;;;;;;;;;;;21.00;73.00;;;;;;5036696;28;1647;-75
2021/09/15 06:52:19;;;;;;;;;;;21.00;73.00;;;;;;5036568;28;1586;-75
2021/09/15 06:54:48;;;;;;;;;;;20.90;72.90;;;;;;5054321;28;1372;-75
2021/09/15 06:57:14;;;;;;;;;;;20.90;72.90;;;;;;5044004;28;2201;-73
2021/09/15 06:59:39;;;;;;;;;;;20.90;72.90;;;;;;5048348;28;1656;-73
2021/09/15 07:02:05;;;;;;;;;;;20.90;72.90;;;;;;5039347;28;1589;-72
2021/09/15 07:04:30;;;;;;;;;;;21.00;72.90;;;;;;5035440;28;1967;-73
2021/09/15 07:06:56;;;;;;;;;;;20.90;72.90;;;;;;5053825;28;1661;-73
2021/09/15 07:09:21;;;;;;;;;;;20.90;72.90;;;;;;5053895;28;1422;-73
2021/09/15 07:11:47;;;;;;;;;;;20.90;72.80;;;;;;5054020;28;1663;-73
2021/09/15 07:14:12;;;;;;;;;;;20.90;72.80;;;;;;5054105;28;1210;-74
2021/09/15 07:16:38;;;;;;;;;;;20.90;72.80;;;;;;5053739;28;1649;-72
2021/09/15 07:19:03;;;;;;;;;;;20.90;72.80;;;;;;5050334;28;1716;-71
2021/09/15 07:21:29;;;;;;;;;;;20.90;72.80;;;;;;5035789;28;1593;-72
2021/09/15 07:23:54;;;;;;;;;;;20.90;72.80;;;;;;5035726;28;1957;-74
2021/09/15 07:26:20;;;;;;;;;;;20.90;73.50;;;;;;5053651;28;1669;-73
2021/09/15 07:28:45;;;;;;;;;;;20.90;72.80;;;;;;5053374;28;1692;-75
2021/09/15 07:31:10;;;;;;;;;;;20.90;72.80;;;;;;5053286;28;1564;-73
2021/09/15 07:33:36;;;;;;;;;;;20.90;72.70;;;;;;5053413;28;1091;-72
2021/09/15 07:36:02;;;;;;;;;;;20.90;72.80;;;;;;5053318;28;1689;-75
2021/09/15 07:38:27;;;;;;;;;;;20.90;72.80;;;;;;5053290;28;1309;-73
2021/09/15 07:40:53;;;;;;;;;;;20.90;72.70;;;;;;5053618;28;1005;-73
2021/09/15 07:43:18;;;;;;;;;;;20.90;72.70;;;;;;5053245;28;1961;-73
2021/09/15 07:45:44;;;;;;;;;;;20.90;72.70;;;;;;5053334;28;1356;-72
2021/09/15 07:48:09;;;;;;;;;;;20.90;72.80;;;;;;5046223;28;1650;-72
2021/09/15 07:50:34;;;;;;;;;;;20.90;72.80;;;;;;5043161;28;1283;-72
2021/09/15 07:53:00;;;;;;;;;;;20.90;72.70;;;;;;5046089;28;1196;-73
2021/09/15 07:55:25;;;;;;;;;;;20.90;72.70;;;;;;5042395;28;1303;-73
2021/09/15 07:57:53;;;;;;;;;;;20.90;72.70;;;;;;5024686;28;1416;-72
2021/09/15 08:00:18;;;;;;;;;;;20.90;72.70;;;;;;5034665;28;1659;-73
2021/09/15 08:02:44;;;;;;;;;;;20.90;72.70;;;;;;5001867;28;1969;-70
2021/09/15 08:05:09;;;;;;;;;;;20.90;72.70;;;;;;5039255;28;1555;-72
2021/09/15 08:07:35;;;;;;;;;;;20.90;72.70;;;;;;5050072;28;1370;-73
2021/09/15 08:10:00;;;;;;;;;;;20.90;72.70;;;;;;5048267;28;1294;-73
2021/09/15 08:12:25;;;;;;;;;;;20.90;73.50;;;;;;5051427;28;1614;-73
2021/09/15 08:14:51;;;;;;;;;;;20.90;72.70;;;;;;5050586;28;1665;-73
2021/09/15 08:17:16;;;;;;;;;;;20.90;72.70;;;;;;5051054;28;1618;-72
2021/09/15 08:19:42;;;;;;;;;;;20.90;72.70;;;;;;5051949;28;1634;-73
2021/09/15 08:22:07;;;;;;;;;;;20.90;72.80;;;;;;5034121;28;1396;-73
2021/09/15 08:24:33;;;;;;;;;;;20.90;72.80;;;;;;5052833;28;1961;-73
2021/09/15 08:26:58;;;;;;;;;;;20.90;72.80;;;;;;5052755;28;1329;-73
2021/09/15 08:29:23;;;;;;;;;;;20.90;72.90;;;;;;5052808;28;1634;-73
2021/09/15 08:31:49;;;;;;;;;;;20.90;72.90;;;;;;5052954;28;1157;-73
2021/09/15 08:34:15;;;;;;;;;;;20.90;74.00;;;;;;5052960;28;1439;-73
2021/09/15 08:36:40;;;;;;;;;;;21.00;74.00;;;;;;5034640;28;1685;-72
2021/09/15 08:39:06;;;;;;;;;;;21.10;73.30;;;;;;5052623;28;1646;-76
2021/09/15 08:41:31;;;;;;;;;;;21.10;73.10;;;;;;5053480;28;1374;-72
2021/09/15 08:43:57;;;;;;;;;;;21.10;72.90;;;;;;5052887;28;1926;-73
2021/09/15 08:46:23;;;;;;;;;;;21.10;72.80;;;;;;5052593;28;1517;-73
2021/09/15 08:48:48;;;;;;;;;;;21.10;72.90;;;;;;5034848;28;1288;-73
2021/09/15 08:51:16;;;;;;;;;;;21.10;72.90;;;;;;5052434;28;1688;-73
2021/09/15 08:53:42;;;;;;;;;;;21.10;72.80;;;;;;5043595;28;1732;-73
2021/09/15 08:56:07;;;;;;;;;;;21.10;72.70;;;;;;5031410;28;1664;-72
2021/09/15 08:58:33;;;;;;;;;;;21.10;73.10;;;;;;5023309;28;1322;-72
2021/09/15 09:01:14;;;;;;;;;;;21.10;73.30;;;;;;5030048;28;1449;-72
2021/09/15 09:03:41;;;;;;;;;;;21.20;73.00;;;;;;5055249;28;1906;-71
2021/09/15 09:06:17;;;;;;;;;;;21.30;73.60;;;;;;5037838;28;1289;-73
2021/09/15 09:08:43;;;;;;;;;;;21.30;72.80;;;;;;5038652;28;1409;-74
2021/09/15 09:11:09;;;;;;;;;;;21.30;72.50;;;;;;5042948;28;1168;-73
2021/09/15 09:13:35;;;;;;;;;;;21.30;72.50;;;;;;5038188;28;1311;-74
2021/09/15 09:16:01;;;;;;;;;;;21.30;72.40;;;;;;5018206;28;1215;-73
2021/09/15 09:18:26;;;;;;;;;;;21.30;72.50;;;;;;5048836;28;1345;-73
2021/09/15 09:20:52;;;;;;;;;;;21.30;72.60;;;;;;5056138;28;1394;-73
2021/09/15 09:23:17;;;;;;;;;;;21.20;72.70;;;;;;5055898;28;1906;-72
2021/09/15 09:25:44;;;;;;;;;;;21.30;73.00;;;;;;5055651;28;1214;-73
2021/09/15 09:30:48;;;;;;;;;;;21.40;74.00;;;;;;5040866;28;1673;-68
2021/09/15 09:33:13;;;;;;;;;;;21.50;73.50;;;;;;5031297;28;1800;-67
2021/09/15 09:35:39;;;;;;;;;;;21.70;75.30;;;;;;5054926;28;1337;-67
2021/09/15 09:38:37;;;;;;;;;;;21.80;76.40;;;;;;5054757;28;1339;-68
2021/09/15 09:41:12;;;;;;;;;;;22.00;76.70;;;;;;5012313;28;1382;-68
2021/09/15 09:43:41;;;;;;;;;;;22.10;71.50;;;;;;5034975;28;1975;-67
2021/09/15 09:46:08;;;;;;;;;;;22.10;72.40;;;;;;5017664;28;1396;-68
2021/09/15 09:48:34;;;;;;;;;;;22.10;71.10;;;;;;5035430;28;1287;-68
2021/09/15 09:51:00;;;;;;;;;;;22.00;71.40;;;;;;5035165;28;1292;-68
2021/09/15 09:53:26;;;;;;;;;;;22.00;71.40;;;;;;5017304;28;1346;-68
2021/09/15 09:55:51;;;;;;;;;;;22.00;72.80;;;;;;5034085;28;1387;-68
2021/09/15 09:58:23;;;;;;;;;;;22.10;74.30;;;;;;5016987;28;1328;-69
2021/09/15 10:00:49;;;;;;;;;;;22.40;77.00;;;;;;5017272;28;1350;-75
2021/09/15 10:03:14;;;;;;;;;;;22.70;70.20;;;;;;5034895;28;1894;-74
2021/09/15 10:05:40;;;;;;;;;;;22.70;69.80;;;;;;5034196;28;1356;-75
2021/09/15 10:08:05;;;;;;;;;;;22.70;69.20;;;;;;5016406;28;1455;-77
2021/09/15 10:10:31;;;;;;;;;;;22.70;69.40;;;;;;5031829;28;1313;-77
2021/09/15 10:12:56;;;;;;;;;;;22.60;69.60;;;;;;5036524;28;1280;-74
2021/09/15 10:15:22;;;;;;;;;;;22.50;70.00;;;;;;5054263;28;1331;-73
2021/09/15 10:17:48;;;;;;;;;;;22.50;70.60;;;;;;5045576;28;1071;-73
2021/09/15 10:20:14;;;;;;;;;;;22.40;70.00;;;;;;5032186;28;1288;-73
2021/09/15 10:22:43;;;;;;;;;;;22.30;70.20;;;;;;5036656;28;1961;-74
2021/09/15 10:25:09;;;;;;;;;;;22.30;70.10;;;;;;5036823;28;1080;-74
2021/09/15 10:27:54;;;;;;;;;;;22.20;70.00;;;;;;5053434;28;1260;-74
2021/09/15 10:30:20;;;;;;;;;;;22.20;70.00;;;;;;5037963;28;1342;-72
2021/09/15 10:32:46;;;;;;;;;;;22.10;70.00;;;;;;5032041;28;1243;-73
2021/09/15 10:35:11;;;;;;;;;;;22.10;69.90;;;;;;5034421;28;1364;-74
2021/09/15 10:37:40;;;;;;;;;;;22.10;70.00;;;;;;5035490;28;1143;-73
2021/09/15 10:40:08;;;;;;;;;;;22.00;69.90;;;;;;5054558;28;1255;-73
2021/09/15 10:42:34;;;;;;;;;;;22.00;70.10;;;;;;5053918;28;1910;-74
2021/09/15 10:45:26;;;;;;;;;;;22.00;70.40;;;;;;5035892;28;1298;-73
2021/09/15 10:47:54;;;;;;;;;;;22.00;70.40;;;;;;5029966;28;1299;-73
2021/09/15 10:50:37;;;;;;;;;;;22.00;70.50;;;;;;5054098;28;1272;-74
2021/09/15 10:53:02;;;;;;;;;;;21.90;70.50;;;;;;5053837;28;1385;-73
2021/09/15 10:55:28;;;;;;;;;;;21.90;70.70;;;;;;5053483;28;1063;-74
2021/09/15 10:57:54;;;;;;;;;;;21.90;70.80;;;;;;5034642;28;1536;-74
2021/09/15 11:00:21;;;;;;;;;;;21.90;70.90;;;;;;5035620;28;1372;-75
2021/09/15 11:02:48;;;;;;;;;;;21.90;71.70;;;;;;5035327;28;1981;-72
2021/09/15 11:05:26;;;;;;;;;;;21.90;70.90;;;;;;5033169;28;1269;-72
2021/09/15 11:07:53;;;;;;;;;;;21.90;71.60;;;;;;5002867;28;1367;-73
2021/09/15 11:10:31;;;;;;;;;;;21.90;71.00;;;;;;5047486;28;1260;-73
2021/09/15 11:12:57;;;;;;;;;;;21.90;71.00;;;;;;5043666;28;1280;-73
2021/09/15 11:15:25;;;;;;;;;;;21.90;70.90;;;;;;5027658;28;1432;-73
2021/09/15 11:17:51;;;;;;;;;;;21.90;70.90;;;;;;5033550;28;1252;-73
2021/09/15 11:20:20;;;;;;;;;;;21.90;70.80;;;;;;5034137;28;1356;-73
2021/09/15 11:22:46;;;;;;;;;;;21.90;70.80;;;;;;5021138;28;1955;-73
2021/09/15 11:25:14;;;;;;;;;;;21.90;70.80;;;;;;5010355;28;1280;-74
2021/09/15 11:27:40;;;;;;;;;;;21.90;70.70;;;;;;5013636;28;1273;-74
2021/09/15 11:30:05;;;;;;;;;;;21.90;70.70;;;;;;5014170;28;1269;-74
2021/09/15 11:32:31;;;;;;;;;;;21.90;70.70;;;;;;5014881;28;1350;-74
2021/09/15 11:34:56;;;;;;;;;;;21.90;70.70;;;;;;5013961;28;1247;-74
2021/09/15 11:37:23;;;;;;;;;;;21.90;70.70;;;;;;5022670;28;1150;-74
2021/09/15 11:39:52;;;;;;;;;;;21.90;70.70;;;;;;5010832;28;1352;-76
2021/09/15 11:42:22;;;;;;;;;;;21.90;70.70;;;;;;5024807;28;1188;-76
2021/09/15 11:44:48;;;;;;;;;;;21.90;70.70;;;;;;5018848;28;1958;-75
2021/09/15 11:47:13;;;;;;;;;;;21.90;70.70;;;;;;5036264;28;1076;-74
2021/09/15 11:49:38;;;;;;;;;;;21.90;70.70;;;;;;5006734;28;1566;-77
2021/09/15 11:52:04;;;;;;;;;;;21.90;70.70;;;;;;5033002;28;1439;-76
2021/09/15 11:54:30;;;;;;;;;;;21.90;70.70;;;;;;5032143;28;1074;-73
2021/09/15 11:57:06;;;;;;;;;;;21.90;70.60;;;;;;5014681;28;1366;-76
2021/09/15 11:59:32;;;;;;;;;;;21.90;70.60;;;;;;5015944;28;1378;-76
2021/09/15 12:01:57;;;;;;;;;;;21.90;70.60;;;;;;5015807;28;1236;-76
2021/09/15 12:04:23;;;;;;;;;;;21.90;70.70;;;;;;5014249;28;1933;-76
2021/09/15 12:06:48;;;;;;;;;;;21.90;70.70;;;;;;5038751;28;1142;-74
2021/09/15 12:09:14;;;;;;;;;;;21.80;70.70;;;;;;5030920;28;1328;-74
2021/09/15 12:11:40;;;;;;;;;;;21.90;70.80;;;;;;5034868;28;1363;-74
2021/09/15 12:14:06;;;;;;;;;;;21.90;70.90;;;;;;5034532;28;1275;-74
2021/09/15 12:16:32;;;;;;;;;;;21.80;70.90;;;;;;5034275;28;1423;-72
2021/09/15 12:18:57;;;;;;;;;;;21.80;71.10;;;;;;5051882;28;1383;-74
2021/09/15 12:21:23;;;;;;;;;;;21.80;71.00;;;;;;5034274;28;1383;-74
2021/09/15 12:23:49;;;;;;;;;;;21.80;71.10;;;;;;5034150;28;1961;-74
2021/09/15 12:26:15;;;;;;;;;;;21.80;71.20;;;;;;5051739;28;1036;-74
2021/09/15 12:28:40;;;;;;;;;;;21.80;71.30;;;;;;5017715;28;1451;-73
2021/09/15 12:31:06;;;;;;;;;;;21.80;71.50;;;;;;5052253;28;1380;-75
2021/09/15 12:33:36;;;;;;;;;;;21.80;71.90;;;;;;5033926;28;1460;-74
2021/09/15 12:36:12;;;;;;;;;;;21.80;72.10;;;;;;5053504;28;1294;-73
2021/09/15 12:38:47;;;;;;;;;;;21.80;72.10;;;;;;5056667;28;1330;-76
2021/09/15 12:41:12;;;;;;;;;;;21.80;72.00;;;;;;5056376;28;1286;-75
2021/09/15 12:43:37;;;;;;;;;;;21.80;71.80;;;;;;5056173;28;1902;-73
2021/09/15 12:46:03;;;;;;;;;;;21.80;71.70;;;;;;5055974;28;1044;-76
2021/09/15 12:48:28;;;;;;;;;;;21.80;71.60;;;;;;5056330;28;1417;-77
2021/09/15 12:50:54;;;;;;;;;;;21.80;71.60;;;;;;5029815;28;1752;-73
2021/09/15 12:53:19;;;;;;;;;;;21.80;71.50;;;;;;5037583;28;991;-73
2021/09/15 12:55:48;;;;;;;;;;;21.70;71.60;;;;;;5035513;28;1242;-75
2021/09/15 12:58:26;;;;;;;;;;;21.70;71.60;;;;;;5039236;28;2146;-74
2021/09/15 13:00:52;;;;;;;;;;;21.70;71.70;;;;;;5014240;28;1267;-76
2021/09/15 13:03:17;;;;;;;;;;;21.70;71.80;;;;;;5033364;28;1918;-73
2021/09/15 13:05:44;;;;;;;;;;;21.70;71.80;;;;;;5024374;28;1866;-73
2021/09/15 13:08:16;;;;;;;;;;;21.60;71.80;;;;;;5013477;28;1129;-73
2021/09/15 13:10:42;;;;;;;;;;;21.70;72.00;;;;;;5021520;28;2230;-77
2021/09/15 13:13:07;;;;;;;;;;;21.60;71.90;;;;;;5035144;28;1099;-76
2021/09/15 13:15:32;;;;;;;;;;;21.60;72.00;;;;;;5034347;28;1155;-75
2021/09/15 13:17:58;;;;;;;;;;;21.60;72.00;;;;;;5034611;28;1139;-76
2021/09/15 13:20:23;;;;;;;;;;;21.60;72.00;;;;;;5049350;28;1190;-77
2021/09/15 13:22:49;;;;;;;;;;;21.60;72.10;;;;;;5001043;28;2243;-76
2021/09/15 13:25:15;;;;;;;;;;;21.60;72.10;;;;;;5035924;28;1084;-77
2021/09/15 13:27:41;;;;;;;;;;;21.60;72.10;;;;;;5017657;28;1193;-76
2021/09/15 13:30:07;;;;;;;;;;;21.60;72.10;;;;;;5020818;28;1358;-77
2021/09/15 13:32:32;;;;;;;;;;;21.50;72.10;;;;;;5011687;28;1191;-77
2021/09/15 13:34:57;;;;;;;;;;;21.60;72.20;;;;;;5018077;28;1135;-78
2021/09/15 13:37:23;;;;;;;;;;;21.60;72.20;;;;;;5035375;28;1081;-77
2021/09/15 13:39:49;;;;;;;;;;;21.60;72.20;;;;;;5020521;28;1249;-77
2021/09/15 13:42:14;;;;;;;;;;;21.50;72.10;;;;;;5055261;28;1334;-77
2021/09/15 13:44:39;;;;;;;;;;;21.50;72.10;;;;;;5021311;28;1910;-76
2021/09/15 13:47:05;;;;;;;;;;;21.50;72.10;;;;;;5016447;28;816;-77
2021/09/15 13:49:38;;;;;;;;;;;21.50;72.20;;;;;;5033641;28;1291;-77
2021/09/15 13:52:04;;;;;;;;;;;21.50;72.20;;;;;;5028182;28;1056;-76
2021/09/15 13:54:29;;;;;;;;;;;21.50;72.10;;;;;;5034054;28;1131;-76
2021/09/15 13:56:55;;;;;;;;;;;21.50;72.10;;;;;;5034934;28;1068;-76
2021/09/15 13:59:20;;;;;;;;;;;21.50;72.10;;;;;;5017280;28;1253;-76
2021/09/15 14:01:46;;;;;;;;;;;21.50;72.20;;;;;;5025239;28;1076;-76
2021/09/15 14:04:11;;;;;;;;;;;21.50;72.20;;;;;;5017253;28;1977;-76
2021/09/15 14:06:38;;;;;;;;;;;21.50;72.20;;;;;;5045157;28;1029;-76
2021/09/15 14:09:04;;;;;;;;;;;21.50;72.20;;;;;;5031290;28;1264;-76
2021/09/15 14:11:29;;;;;;;;;;;21.50;72.20;;;;;;5035736;28;1042;-77
2021/09/15 14:13:55;;;;;;;;;;;21.50;72.20;;;;;;5041465;28;1092;-77
2021/09/15 14:16:20;;;;;;;;;;;21.50;72.20;;;;;;5054070;28;1471;-76
2021/09/15 14:18:46;;;;;;;;;;;21.50;72.20;;;;;;5041220;28;1267;-76
2021/09/15 14:21:11;;;;;;;;;;;21.50;72.20;;;;;;5044520;28;1056;-76
2021/09/15 14:23:36;;;;;;;;;;;21.50;72.20;;;;;;5037336;28;1959;-77
2021/09/15 14:26:02;;;;;;;;;;;21.50;72.20;;;;;;5020108;28;1077;-76
2021/09/15 14:28:29;;;;;;;;;;;21.50;72.20;;;;;;5033508;28;1331;-75
2021/09/15 14:30:54;;;;;;;;;;;21.50;72.20;;;;;;5044230;28;1308;-76
2021/09/15 14:33:20;;;;;;;;;;;21.50;72.20;;;;;;5054143;28;1397;-76
2021/09/15 14:35:45;;;;;;;;;;;21.50;72.20;;;;;;5053721;28;1277;-77
2021/09/15 14:38:10;;;;;;;;;;;21.50;72.20;;;;;;5036345;28;1308;-76